createdAt,value
2018-03-02T00:03:10.521Z,13
2018-03-02T00:13:10.506Z,12
2018-03-02T00:23:10.478Z,9
2018-03-02T00:33:10.656Z,14
2018-03-02T00:43:10.692Z,13
2018-03-02T00:53:10.508Z,12
2018-03-02T01:03:10.638Z,15
2018-03-02T01:13:10.612Z,12
2018-03-02T01:23:11.655Z,11
2018-03-02T01:33:10.618Z,14
2018-03-02T01:43:10.523Z,16
2018-03-02T01:53:10.715Z,16
2018-03-02T02:03:10.691Z,14
2018-03-02T02:13:10.728Z,14
2018-03-02T02:23:10.673Z,16
2018-03-02T02:33:10.622Z,15
2018-03-02T02:43:10.716Z,14
2018-03-02T02:53:10.597Z,16
2018-03-02T03:03:10.682Z,10
2018-03-02T03:13:10.637Z,13
2018-03-02T03:23:10.539Z,14
2018-03-02T03:33:10.695Z,19
2018-03-02T03:43:10.626Z,14
2018-03-02T03:53:10.626Z,17
2018-03-02T04:03:10.630Z,16
2018-03-02T04:13:10.695Z,16
2018-03-02T04:23:10.634Z,17
2018-03-02T04:33:10.624Z,16
2018-03-02T04:43:10.712Z,19
2018-03-02T04:53:10.604Z,16
2018-03-02T05:03:10.741Z,23
2018-03-02T05:13:10.662Z,19
2018-03-02T05:23:10.740Z,13
2018-03-02T05:33:10.672Z,17
2018-03-02T05:43:10.668Z,12
2018-03-02T05:53:10.913Z,18
2018-03-02T06:03:10.625Z,21
2018-03-02T06:13:10.686Z,16
2018-03-02T06:23:10.672Z,15
2018-03-02T06:33:10.778Z,17
2018-03-02T06:43:10.709Z,16
2018-03-02T06:53:10.786Z,20
2018-03-02T07:03:10.709Z,18
2018-03-02T07:13:10.773Z,20
2018-03-02T07:23:10.770Z,20
2018-03-02T07:33:10.726Z,19
2018-03-02T07:43:10.754Z,17
2018-03-02T07:53:10.752Z,20
2018-03-02T08:03:10.814Z,20
2018-03-02T08:13:13.638Z,15
2018-03-02T08:23:10.751Z,20
2018-03-02T08:33:10.775Z,21
2018-03-02T08:43:10.886Z,17
2018-03-02T08:53:10.842Z,19
2018-03-02T09:03:10.793Z,23
2018-03-02T09:13:10.886Z,23
2018-03-02T09:23:12.073Z,18
2018-03-02T09:33:10.916Z,23
2018-03-02T09:43:10.931Z,18
2018-03-02T09:53:10.880Z,28
2018-03-02T10:03:11.147Z,22
2018-03-02T10:13:10.819Z,25
2018-03-02T10:23:10.888Z,26
2018-03-02T10:33:10.893Z,24
2018-03-02T10:43:10.853Z,20
2018-03-02T10:53:10.827Z,25
2018-03-02T11:03:10.987Z,27
2018-03-02T11:13:11.012Z,27
2018-03-02T11:23:10.837Z,26
2018-03-02T11:33:10.918Z,25
2018-03-02T11:43:10.878Z,25
2018-03-02T11:53:10.892Z,27
2018-03-02T12:03:10.916Z,18
2018-03-02T12:13:10.937Z,26
2018-03-02T12:23:11.135Z,30
2018-03-02T12:33:10.975Z,28
2018-03-02T12:43:10.920Z,30
2018-03-02T12:53:11.027Z,28
2018-03-02T13:03:10.916Z,25
2018-03-02T13:13:10.982Z,28
2018-03-02T13:23:10.892Z,32
2018-03-02T13:33:10.990Z,25
2018-03-02T13:43:11.015Z,27
2018-03-02T13:53:10.954Z,23
2018-03-02T14:03:10.960Z,28
2018-03-02T14:13:11.037Z,23
2018-03-02T14:23:11.983Z,29
2018-03-02T14:33:11.072Z,27
2018-03-02T14:43:10.972Z,25
2018-03-02T14:53:10.986Z,31
2018-03-02T15:03:11.220Z,26
2018-03-02T15:17:28.528Z,24
2018-03-02T15:23:11.077Z,33
2018-03-02T15:33:11.091Z,28
2018-03-02T15:43:11.012Z,25
2018-03-02T15:53:11.114Z,30
2018-03-02T16:03:11.099Z,26
2018-03-02T16:13:11.117Z,25
2018-03-02T16:23:11.146Z,26
2018-03-02T16:33:11.156Z,25
2018-03-02T16:43:11.116Z,26
2018-03-02T16:53:11.083Z,28
2018-03-02T17:03:11.048Z,33
2018-03-02T17:13:11.061Z,29
2018-03-02T17:23:11.172Z,26
2018-03-02T17:33:11.143Z,30
2018-03-02T17:43:11.227Z,28
2018-03-02T17:53:11.211Z,34
2018-03-02T18:03:11.113Z,42
2018-03-02T18:13:12.761Z,29
2018-03-02T18:23:19.451Z,32
2018-03-02T18:33:11.233Z,30
2018-03-02T18:43:11.199Z,33
2018-03-02T18:53:11.335Z,35
2018-03-02T19:03:11.133Z,44
2018-03-02T19:13:11.253Z,33
2018-03-02T19:23:11.204Z,26
2018-03-02T19:33:11.867Z,33
2018-03-02T19:43:13.560Z,46
2018-03-02T19:53:14.526Z,30
2018-03-02T20:03:13.697Z,29
2018-03-02T20:13:15.234Z,34
2018-03-02T20:23:14.476Z,32
2018-03-02T20:33:14.505Z,33
2018-03-02T20:43:11.702Z,26
2018-03-02T20:53:11.538Z,34
2018-03-02T21:03:11.249Z,30
2018-03-02T21:13:11.280Z,34
2018-03-02T21:23:11.255Z,34
2018-03-02T21:33:11.415Z,33
2018-03-02T21:43:11.314Z,33
2018-03-02T21:53:11.342Z,34
2018-03-02T22:03:11.277Z,31
2018-03-02T22:13:11.415Z,32
2018-03-02T22:23:11.312Z,29
2018-03-02T22:33:11.503Z,36
2018-03-02T22:43:11.321Z,31
2018-03-02T22:53:11.369Z,35
2018-03-02T23:03:11.340Z,30
2018-03-02T23:13:11.445Z,32
2018-03-02T23:23:11.437Z,29
2018-03-02T23:33:11.369Z,32
2018-03-02T23:43:11.377Z,29
2018-03-02T23:53:11.330Z,31
